Time;durP1;ratioP1;P1;durP2;ratioP2;P2;SDS_P1;SDS_P2;PMS_P1;PMS_P2;Temp;Humidity;BMP_temperature;BMP_pressure;BME280_temperature;BME280_humidity;BME280_pressure;Samples;Min_cycle;Max_cycle;Signal;HPM_P1;HPM_P2
2022/06/26 00:01:36;;;;;;;16.90;15.60;;;;;;;;;;5063641;28;24421;-48
2022/06/26 00:04:01;;;;;;;17.47;16.10;;;;;;;;;;5066277;28;24421;-47
2022/06/26 00:06:26;;;;;;;17.10;15.80;;;;;;;;;;5067781;28;24429;-46
2022/06/26 00:08:51;;;;;;;16.90;15.70;;;;;;;;;;5068968;28;25049;-46
2022/06/26 00:11:17;;;;;;;17.17;16.08;;;;;;;;;;5061985;28;24426;-46
2022/06/26 00:13:42;;;;;;;17.23;15.93;;;;;;;;;;5063867;28;24517;-46
2022/06/26 00:16:07;;;;;;;17.27;16.13;;;;;;;;;;5063983;28;24427;-46
2022/06/26 00:18:32;;;;;;;17.40;16.20;;;;;;;;;;5068111;28;24442;-46
2022/06/26 00:20:58;;;;;;;18.60;17.20;;;;;;;;;;5069061;28;24519;-46
2022/06/26 00:23:23;;;;;;;19.45;17.95;;;;;;;;;;5066231;28;24406;-48
2022/06/26 00:25:48;;;;;;;17.63;16.40;;;;;;;;;;5072802;28;24423;-46
2022/06/26 00:28:13;;;;;;;19.13;17.67;;;;;;;;;;5068011;28;24560;-46
2022/06/26 00:30:38;;;;;;;17.90;16.60;;;;;;;;;;5061408;28;24487;-46
2022/06/26 00:33:03;;;;;;;17.33;16.02;;;;;;;;;;5066562;28;24430;-47
2022/06/26 00:35:29;;;;;;;18.40;17.03;;;;;;;;;;5062779;28;24457;-46
2022/06/26 00:37:54;;;;;;;17.10;15.90;;;;;;;;;;5061990;28;24956;-47
2022/06/26 00:40:19;;;;;;;17.70;16.43;;;;;;;;;;5066098;28;24475;-44
2022/06/26 00:42:45;;;;;;;18.02;16.52;;;;;;;;;;5067583;28;24984;-44
2022/06/26 00:45:10;;;;;;;18.00;16.70;;;;;;;;;;5068372;28;24995;-45
2022/06/26 00:47:35;;;;;;;17.37;16.07;;;;;;;;;;5068343;28;24480;-45
2022/06/26 00:50:00;;;;;;;17.60;16.07;;;;;;;;;;5076898;28;24955;-46
2022/06/26 00:52:26;;;;;;;18.27;16.95;;;;;;;;;;5057797;28;24414;-46
2022/06/26 00:54:52;;;;;;;18.35;17.00;;;;;;;;;;5072005;28;24437;-46
2022/06/26 00:57:20;;;;;;;17.40;16.00;;;;;;;;;;5077213;28;24449;-46
2022/06/26 00:59:49;;;;;;;16.98;15.77;;;;;;;;;;5067495;28;24508;-46
2022/06/26 01:02:14;;;;;;;18.05;16.65;;;;;;;;;;5067460;28;24869;-46
2022/06/26 01:04:39;;;;;;;17.73;16.42;;;;;;;;;;5059892;28;24423;-45
2022/06/26 01:07:05;;;;;;;17.90;16.60;;;;;;;;;;5071321;28;24418;-46
2022/06/26 01:09:30;;;;;;;16.73;15.53;;;;;;;;;;5068823;28;24541;-47
2022/06/26 01:11:56;;;;;;;17.30;16.10;;;;;;;;;;5065843;28;24526;-46
2022/06/26 01:14:21;;;;;;;16.10;15.00;;;;;;;;;;5083684;28;24449;-46
2022/06/26 01:16:46;;;;;;;17.80;16.50;;;;;;;;;;5070694;28;24453;-46
2022/06/26 01:19:14;;;;;;;19.02;17.73;;;;;;;;;;5071247;28;24640;-46
2022/06/26 01:21:39;;;;;;;16.80;15.60;;;;;;;;;;5070066;28;24419;-45
2022/06/26 01:24:05;;;;;;;17.80;16.50;;;;;;;;;;5068838;28;24429;-46
2022/06/26 01:26:30;;;;;;;17.20;16.00;;;;;;;;;;5068891;28;24422;-45
2022/06/26 01:28:55;;;;;;;18.17;16.70;;;;;;;;;;5071767;28;24425;-45
2022/06/26 01:31:21;;;;;;;17.27;15.97;;;;;;;;;;5074733;28;25147;-45
2022/06/26 01:33:49;;;;;;;17.03;15.77;;;;;;;;;;5069810;28;24490;-45
2022/06/26 01:36:15;;;;;;;18.55;17.25;;;;;;;;;;5073443;28;24414;-46
2022/06/26 01:38:40;;;;;;;16.90;15.67;;;;;;;;;;5076988;28;24441;-45
2022/06/26 01:41:05;;;;;;;17.00;15.73;;;;;;;;;;5074062;28;24418;-46
2022/06/26 01:43:32;;;;;;;18.20;16.60;;;;;;;;;;5065431;28;24422;-46
2022/06/26 01:45:58;;;;;;;17.20;16.00;;;;;;;;;;5080053;28;24438;-46
2022/06/26 01:48:27;;;;;;;18.15;16.85;;;;;;;;;;5069009;28;24485;-46
2022/06/26 01:50:53;;;;;;;17.88;16.48;;;;;;;;;;5067265;28;24777;-46
2022/06/26 01:53:18;;;;;;;18.10;16.80;;;;;;;;;;5066136;28;25038;-46
2022/06/26 01:55:43;;;;;;;17.07;15.77;;;;;;;;;;5081029;28;24802;-45
2022/06/26 01:58:09;;;;;;;17.53;16.23;;;;;;;;;;5066169;28;24422;-46
2022/06/26 02:00:35;;;;;;;19.15;17.30;;;;;;;;;;5061974;28;24423;-46
2022/06/26 02:03:00;;;;;;;17.30;16.00;;;;;;;;;;5063329;28;24423;-46
2022/06/26 02:05:25;;;;;;;17.17;15.87;;;;;;;;;;5073645;28;24426;-46
2022/06/26 02:07:51;;;;;;;17.53;16.20;;;;;;;;;;5072107;28;24414;-46
2022/06/26 02:15:45;;;;;;;17.73;16.38;;;;;;;;;;5064726;28;24446;-47
2022/06/26 02:18:10;;;;;;;19.35;17.92;;;;;;;;;;5067383;28;24960;-47
2022/06/26 02:20:35;;;;;;;18.58;17.17;;;;;;;;;;5064539;28;24419;-47
2022/06/26 02:23:00;;;;;;;18.02;16.73;;;;;;;;;;5062816;28;24502;-47
2022/06/26 02:25:26;;;;;;;18.00;16.60;;;;;;;;;;5070988;28;24485;-46
2022/06/26 02:27:51;;;;;;;17.30;16.10;;;;;;;;;;5065586;28;24991;-47
2022/06/26 02:30:16;;;;;;;18.50;17.10;;;;;;;;;;5072154;28;24427;-47
2022/06/26 02:32:41;;;;;;;19.77;18.17;;;;;;;;;;5060429;28;24517;-45
2022/06/26 02:35:07;;;;;;;18.43;17.03;;;;;;;;;;5077084;28;24986;-45
2022/06/26 02:37:32;;;;;;;17.90;16.50;;;;;;;;;;5073524;28;24422;-46
2022/06/26 02:39:57;;;;;;;18.13;16.80;;;;;;;;;;5066757;28;24415;-49
2022/06/26 02:42:22;;;;;;;17.50;16.20;;;;;;;;;;5067489;28;24422;-45
2022/06/26 02:44:47;;;;;;;20.02;18.40;;;;;;;;;;5066334;28;24438;-46
2022/06/26 02:47:12;;;;;;;19.15;17.60;;;;;;;;;;5068286;28;24550;-46
2022/06/26 02:49:38;;;;;;;18.20;16.77;;;;;;;;;;5067861;28;25180;-45
2022/06/26 02:52:03;;;;;;;18.70;17.10;;;;;;;;;;5053154;28;24438;-45
2022/06/26 02:54:28;;;;;;;17.98;16.67;;;;;;;;;;5062050;28;24503;-45
2022/06/26 02:56:53;;;;;;;18.65;17.15;;;;;;;;;;5078997;28;24908;-46
2022/06/26 02:59:18;;;;;;;17.77;16.38;;;;;;;;;;5071082;28;25539;-45
2022/06/26 03:01:44;;;;;;;18.10;16.60;;;;;;;;;;5065599;28;24418;-45
2022/06/26 03:04:09;;;;;;;18.35;16.85;;;;;;;;;;5063059;28;25331;-46
2022/06/26 03:06:35;;;;;;;19.60;17.80;;;;;;;;;;5073098;28;24490;-46
2022/06/26 03:09:00;;;;;;;18.80;17.30;;;;;;;;;;5078377;28;24414;-47
2022/06/26 03:11:25;;;;;;;18.20;16.80;;;;;;;;;;5078409;28;24448;-47
2022/06/26 03:13:50;;;;;;;17.30;16.00;;;;;;;;;;5063001;28;24476;-47
2022/06/26 03:16:15;;;;;;;18.80;17.20;;;;;;;;;;5065012;28;24960;-47
2022/06/26 03:18:40;;;;;;;20.05;18.25;;;;;;;;;;5071782;28;24505;-47
2022/06/26 03:21:05;;;;;;;18.50;17.00;;;;;;;;;;5074844;28;24449;-47
2022/06/26 03:26:14;;;;;;;18.88;17.27;;;;;;;;;;5061993;28;24441;-47
2022/06/26 03:28:39;;;;;;;20.20;18.50;;;;;;;;;;5070365;28;24423;-47
2022/06/26 03:31:04;;;;;;;17.65;16.25;;;;;;;;;;5084399;28;24422;-48
2022/06/26 03:33:30;;;;;;;18.73;17.23;;;;;;;;;;5062925;28;24517;-51
2022/06/26 03:35:55;;;;;;;17.05;15.73;;;;;;;;;;5068292;28;24432;-47
2022/06/26 03:38:20;;;;;;;17.20;15.80;;;;;;;;;;5066489;28;24441;-47
2022/06/26 03:40:45;;;;;;;17.52;16.13;;;;;;;;;;5077179;28;24454;-47
2022/06/26 03:43:11;;;;;;;19.00;17.35;;;;;;;;;;5070291;28;24425;-50
2022/06/26 03:45:37;;;;;;;17.08;15.57;;;;;;;;;;5066478;28;24534;-47
2022/06/26 03:48:02;;;;;;;16.70;15.40;;;;;;;;;;5075790;28;24500;-47
2022/06/26 03:50:28;;;;;;;17.47;16.07;;;;;;;;;;5066188;28;25225;-45
2022/06/26 03:52:53;;;;;;;17.03;15.50;;;;;;;;;;5075509;28;24533;-45
2022/06/26 03:55:18;;;;;;;16.48;15.10;;;;;;;;;;5059616;28;24435;-46
2022/06/26 03:57:43;;;;;;;16.63;15.33;;;;;;;;;;5064224;28;24488;-46
2022/06/26 04:00:09;;;;;;;18.10;16.50;;;;;;;;;;5062489;28;24502;-46
2022/06/26 04:02:34;;;;;;;18.40;16.80;;;;;;;;;;5066006;28;25242;-45
2022/06/26 04:04:59;;;;;;;17.25;15.85;;;;;;;;;;5065846;28;24431;-46
2022/06/26 04:07:24;;;;;;;18.27;16.67;;;;;;;;;;5075540;28;24430;-46
2022/06/26 04:09:49;;;;;;;18.00;16.40;;;;;;;;;;5074992;28;24469;-47
2022/06/26 04:12:14;;;;;;;17.50;16.00;;;;;;;;;;5070712;28;24433;-47
2022/06/26 04:14:40;;;;;;;17.92;16.42;;;;;;;;;;5062645;28;24843;-46
2022/06/26 04:17:05;;;;;;;17.37;16.03;;;;;;;;;;5060038;28;24442;-46
2022/06/26 04:19:30;;;;;;;17.67;16.17;;;;;;;;;;5062362;28;24841;-46
2022/06/26 04:21:55;;;;;;;17.60;16.20;;;;;;;;;;5064390;28;24407;-48
2022/06/26 04:24:20;;;;;;;16.53;15.23;;;;;;;;;;5066047;28;24780;-46
2022/06/26 04:26:46;;;;;;;16.20;14.90;;;;;;;;;;5063773;28;24427;-46
2022/06/26 04:29:11;;;;;;;16.42;15.18;;;;;;;;;;5072138;28;24414;-46
2022/06/26 04:31:36;;;;;;;16.45;15.15;;;;;;;;;;5073665;28;24426;-46
2022/06/26 04:34:01;;;;;;;17.03;15.63;;;;;;;;;;5073813;28;25046;-47
2022/06/26 04:36:26;;;;;;;16.27;14.97;;;;;;;;;;5070197;28;24441;-47
2022/06/26 04:38:51;;;;;;;16.00;14.80;;;;;;;;;;5062721;28;24540;-47
2022/06/26 04:41:32;;;;;;;16.50;15.30;;;;;;;;;;5074071;28;24410;-45
2022/06/26 04:43:57;;;;;;;16.60;15.35;;;;;;;;;;5066420;28;24564;-47
2022/06/26 04:46:22;;;;;;;15.60;14.50;;;;;;;;;;5069670;28;24522;-44
2022/06/26 04:48:47;;;;;;;15.77;14.60;;;;;;;;;;5060027;28;24976;-45
2022/06/26 04:51:13;;;;;;;15.38;14.18;;;;;;;;;;5062567;28;24525;-46
2022/06/26 04:53:38;;;;;;;15.40;14.20;;;;;;;;;;5064851;28;24430;-46
2022/06/26 04:56:04;;;;;;;15.80;14.60;;;;;;;;;;5075229;28;24551;-46
2022/06/26 04:58:29;;;;;;;15.82;14.63;;;;;;;;;;5065696;28;25051;-46
2022/06/26 05:00:54;;;;;;;15.00;13.90;;;;;;;;;;5071702;28;24425;-46
2022/06/26 05:03:19;;;;;;;14.93;13.82;;;;;;;;;;5068268;28;24419;-45
2022/06/26 05:05:44;;;;;;;14.02;13.02;;;;;;;;;;5069216;28;24406;-44
2022/06/26 05:08:09;;;;;;;16.30;15.00;;;;;;;;;;5061270;28;24418;-50
2022/06/26 05:10:34;;;;;;;16.52;15.23;;;;;;;;;;5065928;28;25078;-45
2022/06/26 05:12:59;;;;;;;15.37;14.30;;;;;;;;;;5066549;28;24422;-45
2022/06/26 05:15:25;;;;;;;13.90;13.00;;;;;;;;;;5061893;28;24438;-46
2022/06/26 05:17:50;;;;;;;13.50;12.60;;;;;;;;;;5079246;28;24792;-47
2022/06/26 05:20:15;;;;;;;15.15;13.95;;;;;;;;;;5062624;28;24418;-45
2022/06/26 05:22:40;;;;;;;15.25;14.15;;;;;;;;;;5059923;28;24418;-46
2022/06/26 05:25:05;;;;;;;17.03;15.83;;;;;;;;;;5055154;28;24469;-44
2022/06/26 05:27:31;;;;;;;15.40;14.27;;;;;;;;;;5062649;28;24419;-47
2022/06/26 05:29:56;;;;;;;14.18;13.07;;;;;;;;;;5066740;28;25022;-45
2022/06/26 05:32:21;;;;;;;14.30;13.30;;;;;;;;;;5069177;28;24410;-46
2022/06/26 05:34:46;;;;;;;14.13;13.23;;;;;;;;;;5064925;28;24433;-45
2022/06/26 05:37:11;;;;;;;14.23;13.32;;;;;;;;;;5066662;28;24683;-46
2022/06/26 05:39:36;;;;;;;15.03;13.90;;;;;;;;;;5087205;28;24411;-46
2022/06/26 05:42:01;;;;;;;14.93;13.93;;;;;;;;;;5075399;28;24443;-46
2022/06/26 05:44:27;;;;;;;18.03;16.73;;;;;;;;;;5070417;28;24451;-45
2022/06/26 05:46:52;;;;;;;14.05;13.10;;;;;;;;;;5063997;28;24465;-45
2022/06/26 05:49:17;;;;;;;14.30;13.30;;;;;;;;;;5064407;28;24800;-45
2022/06/26 05:51:42;;;;;;;15.00;14.00;;;;;;;;;;5071371;28;24489;-45
2022/06/26 05:54:07;;;;;;;12.65;11.85;;;;;;;;;;5063562;28;24441;-46
2022/06/26 05:56:32;;;;;;;13.03;12.23;;;;;;;;;;5072083;28;24860;-45
2022/06/26 05:58:58;;;;;;;11.80;11.10;;;;;;;;;;5068354;28;24426;-45
2022/06/26 06:01:23;;;;;;;13.40;12.50;;;;;;;;;;5065079;28;24964;-47
2022/06/26 06:03:48;;;;;;;12.68;11.88;;;;;;;;;;5082325;28;25275;-45
2022/06/26 06:06:13;;;;;;;12.10;11.30;;;;;;;;;;5074011;28;24501;-46
2022/06/26 06:08:39;;;;;;;11.80;10.93;;;;;;;;;;5059837;28;24437;-45
2022/06/26 06:11:04;;;;;;;13.68;12.77;;;;;;;;;;5064009;28;24844;-47
2022/06/26 06:13:29;;;;;;;13.52;12.63;;;;;;;;;;5073297;28;24422;-46
2022/06/26 06:15:54;;;;;;;14.47;13.47;;;;;;;;;;5067510;28;24415;-46
2022/06/26 06:18:19;;;;;;;12.80;12.00;;;;;;;;;;5066671;28;24418;-45
2022/06/26 06:20:45;;;;;;;14.02;13.13;;;;;;;;;;5064384;28;24825;-46
2022/06/26 06:23:11;;;;;;;14.40;13.40;;;;;;;;;;5066375;28;24468;-45
2022/06/26 06:25:36;;;;;;;13.07;12.18;;;;;;;;;;5068958;28;24426;-46
2022/06/26 06:28:01;;;;;;;12.83;12.03;;;;;;;;;;5064778;28;25041;-45
2022/06/26 06:30:26;;;;;;;12.80;12.00;;;;;;;;;;5067487;28;24476;-45
2022/06/26 06:32:52;;;;;;;12.60;11.70;;;;;;;;;;5059889;28;24515;-45
2022/06/26 06:35:17;;;;;;;14.90;13.90;;;;;;;;;;5063290;28;24557;-46
2022/06/26 06:37:43;;;;;;;14.57;13.57;;;;;;;;;;5056032;28;24514;-46
2022/06/26 06:40:09;;;;;;;12.35;11.55;;;;;;;;;;5069470;28;24414;-46
2022/06/26 06:42:34;;;;;;;14.20;13.20;;;;;;;;;;5068342;28;25360;-46
2022/06/26 06:45:00;;;;;;;12.10;11.30;;;;;;;;;;5064031;28;24546;-46
2022/06/26 06:47:25;;;;;;;12.50;11.70;;;;;;;;;;5061481;28;24557;-46
2022/06/26 06:49:50;;;;;;;11.95;11.15;;;;;;;;;;5055352;28;24829;-46
2022/06/26 06:52:15;;;;;;;10.90;10.20;;;;;;;;;;5057557;28;24411;-46
2022/06/26 06:54:40;;;;;;;13.70;12.73;;;;;;;;;;5066953;28;24446;-46
2022/06/26 06:57:05;;;;;;;13.40;12.43;;;;;;;;;;5075234;28;25019;-46
2022/06/26 06:59:31;;;;;;;11.63;10.87;;;;;;;;;;5062013;28;24996;-46
2022/06/26 07:01:56;;;;;;;12.90;12.00;;;;;;;;;;5063140;28;24466;-45
2022/06/26 07:04:21;;;;;;;12.30;11.50;;;;;;;;;;5065508;28;24414;-45
2022/06/26 07:06:47;;;;;;;12.63;11.83;;;;;;;;;;5067326;28;25027;-46
2022/06/26 07:09:12;;;;;;;12.23;11.43;;;;;;;;;;5066003;28;24481;-46
2022/06/26 07:11:38;;;;;;;11.80;11.00;;;;;;;;;;5062194;28;24940;-46
2022/06/26 07:14:03;;;;;;;12.67;11.83;;;;;;;;;;5065808;28;24427;-46
2022/06/26 07:16:28;;;;;;;12.75;11.85;;;;;;;;;;5054495;28;24422;-45
2022/06/26 07:18:53;;;;;;;11.37;10.57;;;;;;;;;;5062523;28;24421;-46
2022/06/26 07:21:19;;;;;;;12.13;11.33;;;;;;;;;;5064935;28;24421;-46
2022/06/26 07:23:44;;;;;;;11.30;10.50;;;;;;;;;;5060822;28;24427;-47
2022/06/26 07:26:09;;;;;;;10.85;10.15;;;;;;;;;;5065592;28;24804;-47
2022/06/26 07:28:34;;;;;;;10.43;9.83;;;;;;;;;;5058709;28;24476;-47
2022/06/26 07:30:59;;;;;;;11.60;10.80;;;;;;;;;;5064054;28;24442;-47
2022/06/26 07:36:09;;;;;;;10.68;9.98;;;;;;;;;;5066871;28;24462;-46
2022/06/26 07:38:34;;;;;;;10.37;9.77;;;;;;;;;;5063571;28;24423;-46
2022/06/26 07:40:59;;;;;;;9.65;9.05;;;;;;;;;;5066809;28;24387;-46
2022/06/26 07:43:24;;;;;;;9.77;9.10;;;;;;;;;;5066756;28;24383;-46
2022/06/26 07:45:49;;;;;;;9.17;8.57;;;;;;;;;;5066581;28;24847;-46
2022/06/26 07:48:14;;;;;;;8.60;8.10;;;;;;;;;;5066669;28;24496;-46
2022/06/26 07:50:40;;;;;;;9.05;8.40;;;;;;;;;;5063549;28;24564;-46
2022/06/26 07:53:05;;;;;;;8.10;7.60;;;;;;;;;;5065768;28;24457;-46
2022/06/26 07:55:30;;;;;;;7.27;6.87;;;;;;;;;;5066452;28;24806;-46
2022/06/26 07:57:55;;;;;;;7.43;6.97;;;;;;;;;;5066647;28;24532;-46
2022/06/26 08:00:21;;;;;;;7.70;7.20;;;;;;;;;;5064961;28;24989;-46
2022/06/26 08:02:46;;;;;;;7.13;6.72;;;;;;;;;;5066232;28;24438;-46
2022/06/26 08:05:11;;;;;;;6.80;6.40;;;;;;;;;;5063415;28;24457;-47
2022/06/26 08:07:36;;;;;;;6.93;6.53;;;;;;;;;;5065435;28;24884;-47
2022/06/26 08:10:02;;;;;;;7.83;7.33;;;;;;;;;;5066256;28;24521;-46
2022/06/26 08:12:27;;;;;;;6.70;6.30;;;;;;;;;;5065289;28;24496;-46
2022/06/26 08:14:52;;;;;;;6.78;6.38;;;;;;;;;;5066539;28;24541;-46
2022/06/26 08:17:17;;;;;;;7.57;7.17;;;;;;;;;;5066477;28;24403;-46
2022/06/26 08:19:43;;;;;;;7.35;6.82;;;;;;;;;;5065287;28;24998;-47
2022/06/26 08:22:08;;;;;;;7.10;6.60;;;;;;;;;;5064232;28;24438;-47
2022/06/26 08:24:35;;;;;;;6.60;6.20;;;;;;;;;;5066177;28;24463;-47
2022/06/26 08:27:00;;;;;;;6.10;5.70;;;;;;;;;;5065634;28;24458;-46
2022/06/26 08:29:26;;;;;;;6.50;6.10;;;;;;;;;;5066235;28;24495;-46
2022/06/26 08:31:51;;;;;;;6.23;5.93;;;;;;;;;;5066526;28;24486;-46
2022/06/26 08:34:16;;;;;;;6.43;6.10;;;;;;;;;;5063934;28;24433;-46
2022/06/26 08:36:42;;;;;;;7.60;7.20;;;;;;;;;;5064763;28;24500;-47
2022/06/26 08:39:07;;;;;;;6.93;6.53;;;;;;;;;;5066027;28;24403;-47
2022/06/26 08:41:37;;;;;;;6.68;6.28;;;;;;;;;;5066249;28;24394;-47
2022/06/26 08:44:02;;;;;;;5.90;5.50;;;;;;;;;;5066186;28;24490;-47
2022/06/26 08:46:28;;;;;;;6.20;5.90;;;;;;;;;;5063969;28;24521;-46
2022/06/26 08:48:55;;;;;;;6.47;6.07;;;;;;;;;;5063907;28;24458;-47
2022/06/26 08:51:20;;;;;;;6.03;5.63;;;;;;;;;;5058411;28;24427;-47
2022/06/26 08:53:46;;;;;;;5.93;5.53;;;;;;;;;;5043547;28;24434;-46
2022/06/26 08:56:11;;;;;;;7.00;6.60;;;;;;;;;;5045838;28;24453;-46
2022/06/26 08:58:38;;;;;;;6.60;6.20;;;;;;;;;;5060989;28;25039;-47
2022/06/26 09:01:03;;;;;;;6.57;6.07;;;;;;;;;;5066614;28;24422;-46
2022/06/26 09:03:29;;;;;;;6.93;6.53;;;;;;;;;;5068699;28;24425;-47
2022/06/26 09:05:54;;;;;;;7.03;6.63;;;;;;;;;;5069924;28;24391;-47
2022/06/26 09:08:21;;;;;;;5.90;5.60;;;;;;;;;;5066158;28;24419;-47
2022/06/26 09:10:47;;;;;;;6.00;5.60;;;;;;;;;;5069393;28;24974;-47
2022/06/26 09:13:12;;;;;;;5.00;4.72;;;;;;;;;;5069763;28;24406;-47
2022/06/26 09:15:40;;;;;;;5.20;4.90;;;;;;;;;;5069295;28;25320;-46
2022/06/26 09:18:05;;;;;;;4.38;4.18;;;;;;;;;;5069457;28;24383;-47
2022/06/26 09:20:32;;;;;;;5.22;4.93;;;;;;;;;;5067032;28;24430;-46
2022/06/26 09:22:58;;;;;;;5.72;5.35;;;;;;;;;;5067330;28;24443;-46
2022/06/26 09:25:40;;;;;;;5.38;5.07;;;;;;;;;;5069438;28;24932;-47
2022/06/26 09:28:05;;;;;;;5.50;5.20;;;;;;;;;;5069048;28;24790;-46
2022/06/26 09:30:31;;;;;;;5.88;5.47;;;;;;;;;;5069302;28;24399;-46
2022/06/26 09:32:56;;;;;;;6.22;5.82;;;;;;;;;;5069316;28;24386;-46
2022/06/26 09:35:21;;;;;;;5.50;5.18;;;;;;;;;;5066138;28;24431;-46
2022/06/26 09:37:47;;;;;;;5.88;5.57;;;;;;;;;;5068911;28;24690;-47
2022/06/26 09:40:13;;;;;;;6.35;5.95;;;;;;;;;;5068526;28;25208;-46
2022/06/26 09:42:38;;;;;;;5.60;5.30;;;;;;;;;;5068835;28;24460;-46
2022/06/26 09:45:07;;;;;;;5.40;5.10;;;;;;;;;;5069004;28;24789;-46
2022/06/26 09:47:36;;;;;;;5.00;4.70;;;;;;;;;;5066723;28;24445;-46
2022/06/26 09:50:03;;;;;;;5.50;5.20;;;;;;;;;;5069311;28;24437;-47
2022/06/26 09:52:29;;;;;;;5.15;4.85;;;;;;;;;;5066920;28;25025;-46
2022/06/26 09:54:55;;;;;;;5.00;4.70;;;;;;;;;;5068834;28;25078;-46
2022/06/26 09:57:20;;;;;;;5.10;4.80;;;;;;;;;;5069065;28;24383;-47
2022/06/26 09:59:46;;;;;;;4.93;4.73;;;;;;;;;;5066586;28;25013;-47
2022/06/26 10:07:42;;;;;;;4.90;4.60;;;;;;;;;;5069146;28;24494;-47
2022/06/26 10:10:07;;;;;;;4.60;4.40;;;;;;;;;;5068782;28;25000;-47
2022/06/26 10:12:33;;;;;;;5.20;4.80;;;;;;;;;;5066289;28;25063;-47
2022/06/26 10:14:59;;;;;;;5.40;5.10;;;;;;;;;;5067270;28;25003;-47
2022/06/26 10:17:24;;;;;;;5.05;4.75;;;;;;;;;;5066757;28;24433;-47
2022/06/26 10:19:56;;;;;;;5.68;5.28;;;;;;;;;;5065592;28;24434;-47
2022/06/26 10:22:21;;;;;;;4.70;4.50;;;;;;;;;;5059619;28;24846;-47
2022/06/26 10:24:53;;;;;;;4.95;4.60;;;;;;;;;;5054242;28;25016;-47
2022/06/26 10:27:23;;;;;;;5.10;4.90;;;;;;;;;;5068630;28;24637;-47
2022/06/26 10:29:48;;;;;;;5.35;5.05;;;;;;;;;;5066943;28;24828;-47
2022/06/26 10:32:21;;;;;;;4.97;4.68;;;;;;;;;;5068372;28;24407;-46
2022/06/26 10:34:53;;;;;;;5.13;4.82;;;;;;;;;;5068297;28;24421;-46
2022/06/26 10:37:18;;;;;;;4.93;4.70;;;;;;;;;;5065793;28;24452;-46
2022/06/26 10:39:49;;;;;;;5.38;4.97;;;;;;;;;;5067931;28;24391;-46
2022/06/26 10:45:27;;;;;;;5.80;5.40;;;;;;;;;;5066120;28;24460;-46
2022/06/26 10:47:53;;;;;;;5.87;5.47;;;;;;;;;;5067688;28;24406;-46
2022/06/26 10:50:33;;;;;;;6.00;5.60;;;;;;;;;;5068198;28;24407;-45
2022/06/26 10:53:18;;;;;;;5.70;5.30;;;;;;;;;;5045951;28;24518;-47
2022/06/26 10:55:51;;;;;;;5.70;5.20;;;;;;;;;;5063439;28;24426;-46
2022/06/26 10:58:19;;;;;;;5.00;4.70;;;;;;;;;;5067860;28;24474;-47
2022/06/26 11:00:44;;;;;;;4.90;4.60;;;;;;;;;;5067365;28;24405;-47
2022/06/26 11:03:14;;;;;;;5.30;5.00;;;;;;;;;;5067512;28;24463;-47
2022/06/26 11:05:48;;;;;;;5.55;5.15;;;;;;;;;;5067565;28;24399;-48
2022/06/26 11:08:21;;;;;;;5.20;4.90;;;;;;;;;;5063754;28;24455;-47
2022/06/26 11:10:46;;;;;;;5.18;4.88;;;;;;;;;;5064836;28;24522;-47
2022/06/26 11:13:11;;;;;;;5.33;5.03;;;;;;;;;;5067349;28;24514;-48
2022/06/26 11:15:36;;;;;;;5.10;4.80;;;;;;;;;;5067242;28;24403;-47
2022/06/26 11:18:02;;;;;;;5.10;4.80;;;;;;;;;;5067346;28;24397;-47
2022/06/26 11:20:49;;;;;;;4.70;4.40;;;;;;;;;;5063534;28;24499;-46
2022/06/26 11:23:15;;;;;;;4.60;4.40;;;;;;;;;;5067058;28;24403;-46
2022/06/26 11:25:43;;;;;;;5.00;4.70;;;;;;;;;;5066832;28;24394;-47
2022/06/26 11:28:09;;;;;;;5.10;4.80;;;;;;;;;;5067212;28;24541;-47
2022/06/26 11:30:38;;;;;;;5.00;4.70;;;;;;;;;;5066711;28;24540;-46
2022/06/26 11:33:03;;;;;;;7.63;7.22;;;;;;;;;;5063147;28;24481;-46
2022/06/26 11:35:29;;;;;;;7.80;7.30;;;;;;;;;;5066961;28;24992;-47
2022/06/26 11:37:54;;;;;;;8.53;8.03;;;;;;;;;;5062840;28;24419;-46
2022/06/26 11:40:19;;;;;;;6.40;5.80;;;;;;;;;;5065625;28;24419;-47
2022/06/26 11:42:45;;;;;;;5.60;5.30;;;;;;;;;;5065038;28;24419;-47
2022/06/26 11:45:19;;;;;;;5.40;5.10;;;;;;;;;;5066887;28;24438;-47
2022/06/26 11:47:44;;;;;;;6.57;6.18;;;;;;;;;;5064284;28;24423;-46
2022/06/26 11:50:24;;;;;;;5.37;5.07;;;;;;;;;;5066876;28;24390;-46
2022/06/26 11:52:52;;;;;;;5.50;5.20;;;;;;;;;;5064923;28;24774;-46
2022/06/26 11:55:17;;;;;;;5.47;5.18;;;;;;;;;;5066580;28;25051;-46
2022/06/26 11:57:42;;;;;;;5.10;4.80;;;;;;;;;;5066643;28;24484;-47
2022/06/26 12:00:08;;;;;;;5.07;4.78;;;;;;;;;;5063553;28;24856;-47
2022/06/26 12:02:39;;;;;;;4.93;4.72;;;;;;;;;;5066583;28;24929;-47
2022/06/26 12:05:05;;;;;;;5.60;5.30;;;;;;;;;;5065573;28;24944;-46
2022/06/26 12:07:43;;;;;;;6.03;5.73;;;;;;;;;;5066650;28;25119;-47
2022/06/26 12:10:09;;;;;;;7.17;6.67;;;;;;;;;;5066562;28;24933;-46
2022/06/26 12:12:34;;;;;;;7.93;7.43;;;;;;;;;;5063185;28;24525;-46
2022/06/26 12:14:59;;;;;;;7.70;7.20;;;;;;;;;;5065427;28;24435;-46
2022/06/26 12:17:25;;;;;;;8.07;7.60;;;;;;;;;;5065392;28;24425;-46
2022/06/26 12:19:51;;;;;;;8.30;7.80;;;;;;;;;;5066273;28;24393;-46
2022/06/26 12:22:31;;;;;;;8.17;7.57;;;;;;;;;;5064932;28;24493;-46
2022/06/26 12:24:56;;;;;;;7.72;7.22;;;;;;;;;;5063913;28;24518;-47
2022/06/26 12:27:32;;;;;;;7.70;7.20;;;;;;;;;;5066465;28;24482;-47
2022/06/26 12:29:57;;;;;;;8.20;7.70;;;;;;;;;;5065072;28;24434;-46
2022/06/26 12:32:23;;;;;;;7.60;7.20;;;;;;;;;;5066314;28;24413;-47
2022/06/26 12:34:48;;;;;;;7.90;7.40;;;;;;;;;;5066078;28;24422;-47
2022/06/26 12:37:13;;;;;;;7.10;6.70;;;;;;;;;;5064580;28;24430;-47
2022/06/26 12:39:38;;;;;;;7.20;6.80;;;;;;;;;;5070733;28;24394;-46
2022/06/26 12:42:03;;;;;;;7.10;6.70;;;;;;;;;;5068436;28;24431;-47
2022/06/26 12:44:29;;;;;;;7.30;6.80;;;;;;;;;;5069991;28;24827;-47
2022/06/26 12:46:55;;;;;;;7.53;7.13;;;;;;;;;;5069947;28;24398;-46
2022/06/26 12:49:20;;;;;;;7.22;6.80;;;;;;;;;;5067285;28;24765;-46
2022/06/26 12:51:45;;;;;;;7.10;6.70;;;;;;;;;;5060372;28;25234;-46
2022/06/26 12:54:11;;;;;;;8.00;7.38;;;;;;;;;;5049182;28;24406;-46
2022/06/26 12:56:36;;;;;;;6.60;6.20;;;;;;;;;;5049729;28;24494;-46
2022/06/26 12:59:01;;;;;;;7.10;6.70;;;;;;;;;;5050023;28;24384;-47
2022/06/26 13:01:26;;;;;;;7.87;7.37;;;;;;;;;;5063118;28;24431;-47
2022/06/26 13:03:51;;;;;;;8.23;7.63;;;;;;;;;;5068591;28;24449;-47
2022/06/26 13:06:16;;;;;;;6.90;6.50;;;;;;;;;;5067303;28;24422;-47
2022/06/26 13:08:41;;;;;;;7.88;7.47;;;;;;;;;;5067190;28;24526;-47
2022/06/26 13:11:26;;;;;;;7.40;6.90;;;;;;;;;;5070739;28;24441;-46
2022/06/26 13:13:52;;;;;;;7.10;6.60;;;;;;;;;;5063997;28;24434;-47
2022/06/26 13:16:17;;;;;;;6.93;6.53;;;;;;;;;;5066244;28;24427;-46
2022/06/26 13:18:42;;;;;;;7.30;6.90;;;;;;;;;;5054799;28;24421;-45
2022/06/26 13:21:08;;;;;;;6.93;6.53;;;;;;;;;;5064415;28;24426;-47
2022/06/26 13:23:33;;;;;;;6.80;6.40;;;;;;;;;;5072886;28;24444;-47
2022/06/26 13:25:59;;;;;;;7.03;6.63;;;;;;;;;;5061441;28;24430;-47
2022/06/26 13:28:24;;;;;;;7.60;7.00;;;;;;;;;;5064207;28;24430;-47
2022/06/26 13:30:49;;;;;;;6.78;6.38;;;;;;;;;;5069264;28;24479;-47
2022/06/26 13:33:14;;;;;;;6.90;6.50;;;;;;;;;;5067080;28;24504;-47
2022/06/26 13:35:39;;;;;;;7.13;6.70;;;;;;;;;;5071612;28;24426;-47
2022/06/26 13:38:04;;;;;;;7.27;6.87;;;;;;;;;;5067207;28;24461;-46
2022/06/26 13:40:29;;;;;;;7.20;6.80;;;;;;;;;;5067387;28;25090;-47
2022/06/26 13:42:55;;;;;;;6.97;6.57;;;;;;;;;;5068753;28;25070;-47
2022/06/26 13:45:20;;;;;;;8.30;7.80;;;;;;;;;;5076715;28;24438;-47
2022/06/26 13:47:45;;;;;;;10.40;9.60;;;;;;;;;;5070299;28;24427;-46
2022/06/26 13:50:10;;;;;;;10.88;10.07;;;;;;;;;;5075520;28;24423;-47
2022/06/26 13:52:36;;;;;;;10.43;9.63;;;;;;;;;;5055170;28;24445;-46
2022/06/26 13:55:02;;;;;;;8.80;8.20;;;;;;;;;;5056256;28;24414;-46
2022/06/26 13:57:27;;;;;;;8.98;8.38;;;;;;;;;;5068072;28;24811;-47
2022/06/26 13:59:52;;;;;;;8.35;7.85;;;;;;;;;;5065242;28;25019;-47
2022/06/26 14:02:17;;;;;;;7.93;7.43;;;;;;;;;;5069591;28;24418;-47
2022/06/26 14:04:42;;;;;;;7.40;7.00;;;;;;;;;;5067535;28;24505;-47
2022/06/26 14:07:08;;;;;;;8.20;7.70;;;;;;;;;;5065336;28;25030;-47
2022/06/26 14:09:34;;;;;;;8.00;7.50;;;;;;;;;;5066710;28;24426;-47
2022/06/26 14:11:59;;;;;;;8.70;8.10;;;;;;;;;;5059092;28;24476;-46
2022/06/26 14:14:24;;;;;;;7.70;7.20;;;;;;;;;;5065201;28;24484;-47
2022/06/26 14:16:49;;;;;;;7.35;6.95;;;;;;;;;;5060475;28;24414;-47
2022/06/26 14:19:14;;;;;;;7.40;7.00;;;;;;;;;;5066297;28;24484;-47
2022/06/26 14:21:39;;;;;;;7.80;7.20;;;;;;;;;;5061069;28;24426;-47
2022/06/26 14:26:49;;;;;;;7.72;7.22;;;;;;;;;;5055652;28;24429;-46
2022/06/26 14:29:14;;;;;;;7.30;6.90;;;;;;;;;;5055176;28;24438;-46
2022/06/26 14:31:39;;;;;;;7.40;7.00;;;;;;;;;;5070082;28;25056;-46
2022/06/26 14:34:04;;;;;;;7.60;7.10;;;;;;;;;;5057834;28;24442;-47
2022/06/26 14:36:30;;;;;;;8.10;7.60;;;;;;;;;;5066704;28;24521;-46
2022/06/26 14:38:55;;;;;;;7.80;7.30;;;;;;;;;;5059659;28;24960;-46
2022/06/26 14:41:20;;;;;;;7.37;6.87;;;;;;;;;;5067551;28;24421;-47
2022/06/26 14:43:46;;;;;;;7.60;7.10;;;;;;;;;;5068858;28;24554;-47